XS85 weather

University Health System Heliport
San Antonio, Texas, United States

Public forecast

Using degrees Fahrenheit for public forecast. Weather courtesy of forecast.io.

METAR (pilot weather report)

Closest report is San Antonio International Airport, 5.9 nm (10.9 km) ENE. Retrieved 2019/09/19 08:51 UTC (39 minutes ago):

KSAT 190851Z 14005KT 10SM FEW250 27/24 A2988 RMK AO2 SLP096 T02670239 58003

TAF (pilot weather forecast)

Closest forecast is San Antonio International Airport, 5.9 nm (10.9 km) ENE. Retrieved 2019/09/19 06:22 UTC (3 hours ago):

TAF KSAT 190520Z 1906/2012 VRB04KT P6SM SCT030 BKN100 FM191900 17006KT P6SM VCSH SCT050 SCT250 FM200000 16010KT P6SM SCT050 BKN250